Time;durP1;ratioP1;P1;durP2;ratioP2;P2;SDS_P1;SDS_P2;PMS_P1;PMS_P2;Temp;Humidity;BMP_temperature;BMP_pressure;BME280_temperature;BME280_humidity;BME280_pressure;Samples;Min_cycle;Max_cycle;Signal;HPM_P1;HPM_P2
2022/01/07 00:02:10;;;;;;;18.17;6.77;;;;;;;3.51;77.18;100971.16;5065796;28;20220;-60
2022/01/07 00:04:38;;;;;;;22.03;8.03;;;;;;;3.66;76.45;100980.75;5070712;28;20224;-60
2022/01/07 00:07:07;;;;;;;21.33;6.97;;;;;;;3.35;77.48;100986.09;5071856;28;20644;-60
2022/01/07 00:09:36;;;;;;;16.13;7.40;;;;;;;3.12;78.04;100974.34;5078860;28;20302;-60
2022/01/07 00:12:06;;;;;;;22.37;7.40;;;;;;;3.24;78.08;100973.63;5080525;28;20215;-60
2022/01/07 00:14:34;;;;;;;22.33;7.90;;;;;;;3.36;77.39;100966.81;5082740;28;20215;-60
2022/01/07 00:17:02;;;;;;;19.40;8.03;;;;;;;2.98;79.15;100966.44;5074854;28;20232;-60
2022/01/07 00:19:29;;;;;;;26.73;8.60;;;;;;;2.84;80.02;100974.22;5087993;28;20245;-60
2022/01/07 00:21:57;;;;;;;23.13;7.70;;;;;;;2.97;79.46;100969.97;5070488;28;20291;-60
2022/01/07 00:24:25;;;;;;;18.47;7.43;;;;;;;2.62;81.78;100977.19;5080658;28;20230;-61
2022/01/07 00:26:53;;;;;;;22.73;7.40;;;;;;;2.32;82.98;100964.00;5084619;28;20215;-60
2022/01/07 00:29:22;;;;;;;16.43;7.50;;;;;;;2.55;82.15;100968.81;5083579;28;20235;-60
2022/01/07 00:31:49;;;;;;;19.20;7.90;;;;;;;2.43;82.98;100956.44;5080516;28;20246;-61
2022/01/07 00:34:17;;;;;;;20.87;8.43;;;;;;;2.77;81.79;100954.53;5070860;28;20234;-60
2022/01/07 00:36:45;;;;;;;20.87;7.93;;;;;;;3.23;79.26;100948.34;5063478;28;20212;-60
2022/01/07 00:39:13;;;;;;;19.53;7.80;;;;;;;3.46;78.08;100946.13;5068534;28;20210;-60
2022/01/07 00:41:40;;;;;;;21.10;7.57;;;;;;;3.74;76.50;100948.81;5082139;28;20297;-61
2022/01/07 00:44:08;;;;;;;15.93;7.33;;;;;;;3.34;77.86;100969.50;5090570;28;20261;-61
2022/01/07 00:46:37;;;;;;;17.87;6.50;;;;;;;3.69;76.59;100970.03;5083168;28;20885;-59
2022/01/07 00:49:05;;;;;;;17.73;6.50;;;;;;;3.42;77.65;100961.22;5078917;28;20778;-59
2022/01/07 00:51:33;;;;;;;13.10;5.53;;;;;;;3.50;77.13;100960.78;5081550;28;20584;-59
2022/01/07 00:54:01;;;;;;;17.90;6.97;;;;;;;3.55;76.58;100966.56;5083772;28;20676;-60
2022/01/07 00:56:29;;;;;;;15.37;7.07;;;;;;;3.48;76.99;100968.72;5069487;28;20621;-60
2022/01/07 00:58:56;;;;;;;18.93;8.13;;;;;;;3.67;76.22;100955.34;5077262;28;20210;-60
2022/01/07 01:01:24;;;;;;;17.07;7.07;;;;;;;3.68;76.05;100959.66;5071794;28;20218;-59
2022/01/07 01:03:53;;;;;;;16.20;7.30;;;;;;;3.05;78.43;100957.28;5068649;28;20232;-60
2022/01/07 01:06:21;;;;;;;13.13;6.20;;;;;;;3.24;78.00;100959.69;5067726;28;20208;-60
2022/01/07 01:08:49;;;;;;;17.47;6.83;;;;;;;2.86;79.20;100961.88;5071332;28;20219;-60
2022/01/07 01:11:16;;;;;;;18.13;7.03;;;;;;;2.58;81.21;100958.19;5081657;28;20274;-60
2022/01/07 01:13:44;;;;;;;15.70;6.80;;;;;;;3.02;80.06;100954.81;5081866;28;20652;-60
2022/01/07 01:16:12;;;;;;;16.23;6.73;;;;;;;3.23;78.22;100950.13;5081069;28;20238;-61
2022/01/07 01:18:40;;;;;;;13.47;6.43;;;;;;;2.73;80.24;100955.66;5080713;28;20211;-60
2022/01/07 01:21:10;;;;;;;18.53;6.93;;;;;;;2.64;81.14;100957.00;5090291;28;20221;-60
2022/01/07 01:23:38;;;;;;;21.67;6.60;;;;;;;2.65;80.97;100953.44;5068060;28;20303;-58
2022/01/07 01:26:06;;;;;;;19.70;7.13;;;;;;;2.49;82.10;100947.38;5077885;28;20238;-60
2022/01/07 01:28:34;;;;;;;16.97;6.30;;;;;;;2.81;81.13;100946.44;5082544;28;20617;-59
2022/01/07 01:31:04;;;;;;;18.53;7.57;;;;;;;2.88;80.80;100947.78;5087414;28;20207;-59
2022/01/07 01:33:32;;;;;;;15.80;7.17;;;;;;;2.56;81.41;100953.97;5079054;28;20250;-58
2022/01/07 01:36:00;;;;;;;17.93;7.43;;;;;;;3.00;79.70;100944.44;5085640;28;20280;-59
2022/01/07 01:38:30;;;;;;;15.70;7.13;;;;;;;3.35;78.75;100945.00;5085018;28;20284;-59
2022/01/07 01:40:58;;;;;;;15.70;6.60;;;;;;;3.32;78.07;100939.94;5082579;28;20208;-58
2022/01/07 01:43:26;;;;;;;18.30;6.97;;;;;;;3.58;76.80;100935.78;5061463;28;20213;-60
2022/01/07 01:45:54;;;;;;;20.17;7.40;;;;;;;3.55;76.90;100940.34;5073474;28;20639;-61
2022/01/07 01:48:23;;;;;;;16.90;7.50;;;;;;;3.39;76.59;100932.56;5081633;28;20623;-58
2022/01/07 01:50:51;;;;;;;22.93;7.00;;;;;;;3.30;77.82;100925.22;5075558;28;20239;-59
2022/01/07 01:53:19;;;;;;;15.73;6.93;;;;;;;3.50;76.35;100932.78;5074010;28;20241;-59
2022/01/07 01:55:48;;;;;;;17.37;6.80;;;;;;;3.20;77.38;100922.31;5089983;28;20238;-60
2022/01/07 01:58:16;;;;;;;19.93;6.60;;;;;;;3.31;77.41;100919.91;5073325;28;20212;-59
2022/01/07 02:00:43;;;;;;;14.07;6.47;;;;;;;3.12;78.03;100921.06;5072608;28;20215;-59
2022/01/07 02:03:12;;;;;;;12.23;6.70;;;;;;;2.88;79.14;100920.72;5069930;28;20721;-59
2022/01/07 02:05:39;;;;;;;14.83;6.20;;;;;;;3.02;78.62;100929.47;5070741;28;20717;-59
2022/01/07 02:08:08;;;;;;;17.27;7.07;;;;;;;3.13;78.05;100910.50;5056878;28;20272;-59
2022/01/07 02:10:36;;;;;;;13.83;6.03;;;;;;;3.16;78.42;100912.13;5089863;28;20286;-58
2022/01/07 02:13:05;;;;;;;15.13;5.70;;;;;;;3.02;78.94;100911.13;5082180;28;20315;-60
2022/01/07 02:15:33;;;;;;;15.93;6.30;;;;;;;3.05;79.21;100897.00;5076653;28;20243;-60
2022/01/07 02:18:01;;;;;;;22.77;6.93;;;;;;;3.25;77.89;100888.81;5072523;28;20545;-59
2022/01/07 02:20:30;;;;;;;15.97;5.90;;;;;;;3.05;79.27;100883.91;5061759;28;20244;-60
2022/01/07 02:22:59;;;;;;;20.37;6.23;;;;;;;2.93;79.16;100877.59;5074078;28;20299;-60
2022/01/07 02:25:28;;;;;;;25.83;8.00;;;;;;;2.90;79.60;100869.91;5065157;28;20234;-60
2022/01/07 02:27:56;;;;;;;18.87;7.03;;;;;;;2.58;81.21;100868.31;5073678;28;20215;-59
2022/01/07 02:30:26;;;;;;;15.40;6.67;;;;;;;2.90;79.99;100861.25;5076148;28;20218;-59
2022/01/07 02:32:54;;;;;;;15.53;6.37;;;;;;;2.87;80.04;100857.00;5075385;28;20659;-60
2022/01/07 02:35:24;;;;;;;14.80;5.83;;;;;;;2.91;79.52;100855.03;5072886;28;20208;-59
2022/01/07 02:37:53;;;;;;;16.37;6.57;;;;;;;2.84;79.88;100865.03;5062966;28;20299;-59
2022/01/07 02:40:21;;;;;;;21.73;6.63;;;;;;;3.32;78.44;100868.31;5076539;28;20729;-59
2022/01/07 02:42:51;;;;;;;16.13;6.77;;;;;;;3.06;79.35;100877.75;5083839;28;20203;-61
2022/01/07 02:45:19;;;;;;;21.00;7.00;;;;;;;3.11;78.68;100873.06;5087611;28;20293;-60
2022/01/07 02:47:53;;;;;;;13.83;6.13;;;;;;;2.18;83.03;100888.06;5078947;28;20214;-59
2022/01/07 02:50:25;;;;;;;14.77;6.70;;;;;;;2.22;84.16;100879.94;5077856;28;20217;-60
2022/01/07 02:52:55;;;;;;;21.33;6.30;;;;;;;2.37;82.76;100865.16;5071790;28;20274;-60
2022/01/07 02:55:24;;;;;;;17.27;5.97;;;;;;;2.08;84.68;100863.31;5071255;28;20232;-60
2022/01/07 02:57:52;;;;;;;19.67;7.00;;;;;;;2.21;84.20;100854.69;5083304;28;20222;-58
2022/01/07 03:00:22;;;;;;;17.23;7.07;;;;;;;2.25;84.47;100860.59;5077044;28;20657;-59
2022/01/07 03:02:51;;;;;;;24.07;7.23;;;;;;;2.55;83.31;100864.09;5069409;28;20268;-59
2022/01/07 03:05:20;;;;;;;14.53;6.43;;;;;;;2.98;80.33;100864.25;5076300;28;20252;-58
2022/01/07 03:07:48;;;;;;;16.57;7.07;;;;;;;2.88;80.98;100858.72;5071665;28;20208;-59
2022/01/07 03:10:19;;;;;;;14.53;6.67;;;;;;;2.72;81.67;100852.69;5057168;28;20206;-60
2022/01/07 03:12:47;;;;;;;18.03;6.73;;;;;;;2.38;82.77;100856.34;5055039;28;20215;-60
2022/01/07 03:15:16;;;;;;;13.53;6.00;;;;;;;2.44;82.77;100857.81;5085166;28;20210;-60
2022/01/07 03:17:44;;;;;;;15.27;6.60;;;;;;;2.39;82.91;100863.28;5076653;28;20568;-59
2022/01/07 03:20:15;;;;;;;21.03;6.57;;;;;;;2.62;81.84;100844.50;5073729;28;20395;-60
2022/01/07 03:22:44;;;;;;;15.00;5.50;;;;;;;2.19;83.56;100842.66;5078189;28;20737;-60
2022/01/07 03:25:13;;;;;;;16.43;5.87;;;;;;;1.80;85.69;100843.91;5075229;28;20235;-60
2022/01/07 03:27:42;;;;;;;14.27;6.00;;;;;;;1.87;85.87;100842.63;5083756;28;20214;-60
2022/01/07 03:30:13;;;;;;;17.03;5.60;;;;;;;1.96;86.22;100840.44;5084560;28;20218;-59
2022/01/07 03:32:41;;;;;;;18.40;6.63;;;;;;;1.96;86.27;100841.28;5078740;28;20504;-60
2022/01/07 03:35:11;;;;;;;16.27;6.37;;;;;;;2.27;85.57;100843.06;5055927;28;20221;-60
2022/01/07 03:37:39;;;;;;;16.43;6.53;;;;;;;2.20;85.51;100837.31;5086654;28;20313;-60
2022/01/07 03:40:08;;;;;;;14.70;6.43;;;;;;;1.80;87.55;100828.22;5084803;28;20213;-58
2022/01/07 03:42:36;;;;;;;19.17;6.70;;;;;;;1.80;88.22;100833.44;5075999;28;20231;-60
2022/01/07 03:45:06;;;;;;;14.77;7.17;;;;;;;1.96;87.29;100837.81;5074383;28;20460;-59
2022/01/07 03:47:34;;;;;;;19.93;7.20;;;;;;;1.81;88.50;100832.53;5085530;28;20250;-59
2022/01/07 03:50:01;;;;;;;16.60;7.60;;;;;;;1.92;87.38;100831.09;5090692;28;20883;-60
2022/01/07 03:52:30;;;;;;;19.03;8.10;;;;;;;1.94;87.90;100827.44;5068267;28;20227;-60
2022/01/07 03:54:57;;;;;;;17.73;7.37;;;;;;;2.07;87.46;100819.78;5077954;28;20302;-60
2022/01/07 03:57:25;;;;;;;20.93;8.87;;;;;;;1.78;88.40;100821.38;5074526;28;20211;-58
2022/01/07 03:59:53;;;;;;;20.20;7.40;;;;;;;1.86;88.87;100824.41;5085334;28;20247;-59
2022/01/07 04:02:22;;;;;;;20.03;8.17;;;;;;;1.63;89.62;100824.81;5088286;28;20238;-59
2022/01/07 04:04:50;;;;;;;25.13;8.57;;;;;;;1.76;90.10;100823.25;5069544;28;20219;-59
2022/01/07 04:07:18;;;;;;;21.77;9.03;;;;;;;1.79;90.03;100829.13;5071811;28;20215;-60
2022/01/07 04:09:46;;;;;;;27.90;9.83;;;;;;;1.94;90.03;100829.22;5074717;28;20253;-60
2022/01/07 04:12:13;;;;;;;27.63;10.87;;;;;;;1.70;91.51;100811.34;5085808;28;20306;-60
2022/01/07 04:14:42;;;;;;;24.27;9.87;;;;;;;1.67;91.56;100816.72;5090183;28;20212;-59
2022/01/07 04:17:09;;;;;;;26.87;10.03;;;;;;;1.83;91.61;100821.97;5082203;28;20210;-58
2022/01/07 04:19:38;;;;;;;25.07;10.90;;;;;;;1.57;92.97;100809.47;5079921;28;20294;-59
2022/01/07 04:22:07;;;;;;;24.83;10.70;;;;;;;1.53;93.75;100819.25;5080591;28;20207;-59
2022/01/07 04:24:35;;;;;;;26.50;11.77;;;;;;;1.67;92.98;100813.28;5069173;28;20647;-59
2022/01/07 04:27:03;;;;;;;19.40;10.07;;;;;;;1.97;90.95;100813.34;5090211;28;20330;-59
2022/01/07 04:29:31;;;;;;;22.00;10.43;;;;;;;1.89;90.69;100817.25;5083767;28;20222;-59
2022/01/07 04:31:58;;;;;;;27.90;11.37;;;;;;;1.66;91.85;100815.06;5083058;28;20242;-60
2022/01/07 04:34:26;;;;;;;21.83;10.83;;;;;;;1.63;92.16;100817.81;5082255;28;20243;-59
2022/01/07 04:36:55;;;;;;;22.10;11.87;;;;;;;1.64;92.61;100822.13;5088767;28;20350;-58
2022/01/07 04:39:23;;;;;;;26.47;11.03;;;;;;;1.81;91.97;100823.81;5080638;28;20230;-59
2022/01/07 04:41:51;;;;;;;24.60;10.43;;;;;;;1.63;91.60;100817.81;5082295;28;20302;-59
2022/01/07 04:44:19;;;;;;;25.03;10.77;;;;;;;1.63;91.22;100815.22;5083151;28;20209;-59
2022/01/07 04:46:47;;;;;;;20.70;10.07;;;;;;;1.49;92.31;100815.97;5081697;28;20275;-60
2022/01/07 04:49:14;;;;;;;25.40;10.57;;;;;;;1.67;91.77;100821.13;5071489;28;20567;-60
2022/01/07 04:51:42;;;;;;;19.63;9.77;;;;;;;1.64;91.50;100814.28;5069759;28;20298;-60
2022/01/07 04:54:11;;;;;;;19.67;9.63;;;;;;;1.45;92.83;100809.19;5076104;28;20273;-59
2022/01/07 04:56:39;;;;;;;23.57;9.63;;;;;;;1.71;91.92;100807.78;5071354;28;20673;-59
2022/01/07 04:59:07;;;;;;;22.23;9.97;;;;;;;1.70;91.53;100800.88;5080220;28;20242;-60
2022/01/07 05:01:34;;;;;;;26.87;10.70;;;;;;;1.89;91.09;100803.31;5088671;28;20288;-60
2022/01/07 05:04:02;;;;;;;24.13;10.27;;;;;;;1.75;91.41;100809.31;5070385;28;20302;-60
2022/01/07 05:06:45;;;;;;;25.00;9.67;;;;;;;1.77;91.30;100793.53;5082174;28;20773;-58
2022/01/07 05:09:16;;;;;;;17.13;8.33;;;;;;;1.61;91.58;100801.38;5079564;28;20298;-60
2022/01/07 05:11:44;;;;;;;22.33;8.80;;;;;;;1.67;92.03;100790.56;5066853;28;20886;-59
2022/01/07 05:14:12;;;;;;;17.83;8.83;;;;;;;1.98;90.36;100781.03;5078041;28;20282;-60
2022/01/07 05:16:41;;;;;;;19.70;9.30;;;;;;;1.73;90.97;100774.56;5057424;28;20207;-60
2022/01/07 05:19:09;;;;;;;16.53;8.60;;;;;;;2.15;89.51;100780.94;5084075;28;20246;-60
2022/01/07 05:21:37;;;;;;;16.43;8.60;;;;;;;2.09;89.63;100773.44;5087825;28;20580;-58
2022/01/07 05:24:06;;;;;;;23.47;9.53;;;;;;;2.13;88.33;100777.56;5073992;28;20648;-59
2022/01/07 05:26:35;;;;;;;20.20;8.50;;;;;;;2.23;87.65;100776.09;5082975;28;20232;-61
2022/01/07 05:29:03;;;;;;;16.70;8.17;;;;;;;2.31;87.38;100775.66;5091421;28;21011;-58
2022/01/07 05:31:32;;;;;;;20.23;9.10;;;;;;;2.60;85.55;100765.19;5085917;28;20238;-59
2022/01/07 05:34:00;;;;;;;13.53;7.63;;;;;;;2.16;87.08;100772.16;5077689;28;20210;-59
2022/01/07 05:36:27;;;;;;;17.73;7.97;;;;;;;2.40;86.96;100768.13;5070351;28;20222;-60
2022/01/07 05:38:55;;;;;;;22.13;8.97;;;;;;;2.12;87.19;100774.09;5088368;28;20294;-60
2022/01/07 05:41:23;;;;;;;19.90;8.17;;;;;;;2.16;87.90;100766.94;5073160;28;20213;-61
2022/01/07 05:43:52;;;;;;;18.53;9.00;;;;;;;2.23;87.45;100773.50;5065204;28;20700;-60
2022/01/07 05:46:20;;;;;;;17.33;7.83;;;;;;;2.14;86.98;100764.41;5066151;28;20253;-60
2022/01/07 05:48:48;;;;;;;22.10;8.47;;;;;;;2.26;87.21;100752.41;5067015;28;20211;-60
2022/01/07 05:51:16;;;;;;;17.03;8.43;;;;;;;2.01;87.92;100752.97;5092929;28;20210;-59
2022/01/07 05:53:44;;;;;;;16.43;7.70;;;;;;;2.15;87.61;100753.00;5088674;28;20726;-60
2022/01/07 05:56:12;;;;;;;15.57;7.57;;;;;;;1.99;87.33;100748.75;5077076;28;20270;-59
2022/01/07 05:58:39;;;;;;;19.17;9.10;;;;;;;1.99;88.20;100753.97;5073274;28;20211;-59
2022/01/07 06:01:11;;;;;;;16.70;7.87;;;;;;;2.20;87.12;100750.94;5074520;28;20245;-60
2022/01/07 06:03:39;;;;;;;19.57;8.90;;;;;;;1.83;88.78;100740.91;5076492;28;20213;-57
2022/01/07 06:06:07;;;;;;;16.57;7.23;;;;;;;2.02;89.29;100740.72;5072971;28;20333;-59
2022/01/07 06:08:35;;;;;;;20.60;8.70;;;;;;;2.43;86.75;100739.16;5084418;28;20242;-60
2022/01/07 06:11:02;;;;;;;19.20;7.57;;;;;;;2.14;87.27;100734.78;5086868;28;20294;-60
2022/01/07 06:13:30;;;;;;;18.83;7.53;;;;;;;2.21;86.70;100736.09;5074164;28;20207;-60
2022/01/07 06:15:58;;;;;;;20.63;8.73;;;;;;;2.46;85.77;100733.72;5091379;28;20221;-59
2022/01/07 06:18:28;;;;;;;23.13;7.83;;;;;;;1.99;87.59;100738.28;5088428;28;20219;-59
2022/01/07 06:20:55;;;;;;;15.40;7.47;;;;;;;1.86;89.07;100733.72;5084328;28;20237;-59
2022/01/07 06:23:23;;;;;;;15.90;7.93;;;;;;;1.99;88.28;100736.50;5080015;28;20265;-61
2022/01/07 06:25:51;;;;;;;22.40;9.03;;;;;;;2.15;87.68;100728.63;5075888;28;20246;-62
2022/01/07 06:28:20;;;;;;;18.47;8.50;;;;;;;1.85;88.46;100724.19;5074553;28;20696;-59
2022/01/07 06:30:47;;;;;;;18.40;8.33;;;;;;;2.12;87.52;100718.31;5070260;28;20812;-60
2022/01/07 06:33:15;;;;;;;16.93;8.67;;;;;;;2.24;87.25;100721.06;5079346;28;20207;-61
2022/01/07 06:35:44;;;;;;;23.43;8.13;;;;;;;2.18;87.05;100723.22;5085118;28;20277;-60
2022/01/07 06:38:12;;;;;;;22.13;9.13;;;;;;;2.23;87.66;100718.53;5084865;28;20242;-61
2022/01/07 06:40:40;;;;;;;16.77;8.77;;;;;;;2.08;87.68;100715.06;5091818;28;20287;-60
2022/01/07 06:43:07;;;;;;;17.30;8.90;;;;;;;1.84;88.98;100711.22;5074573;28;20207;-60
2022/01/07 06:45:35;;;;;;;15.57;8.27;;;;;;;1.72;89.53;100704.06;5069712;28;20210;-61
2022/01/07 06:48:04;;;;;;;22.93;8.53;;;;;;;1.91;89.44;100704.72;5072619;28;20693;-60
2022/01/07 06:50:31;;;;;;;23.63;8.87;;;;;;;2.07;88.49;100704.66;5061598;28;20239;-60
2022/01/07 06:53:01;;;;;;;20.27;9.10;;;;;;;1.96;89.09;100705.28;5092812;28;20235;-60
2022/01/07 06:55:47;;;;;;;16.53;8.00;;;;;;;2.14;88.08;100706.00;5071829;28;20210;-60
2022/01/07 06:58:15;;;;;;;19.27;8.73;;;;;;;2.20;88.09;100710.88;5070534;28;20538;-60
2022/01/07 07:00:43;;;;;;;22.13;9.60;;;;;;;2.34;86.52;100716.16;5075898;28;20290;-60
2022/01/07 07:03:12;;;;;;;22.67;8.87;;;;;;;2.40;86.40;100717.56;5083983;28;20244;-59
2022/01/07 07:05:40;;;;;;;21.63;9.20;;;;;;;2.36;86.55;100722.16;5087535;28;20623;-60
2022/01/07 07:08:09;;;;;;;17.93;8.67;;;;;;;2.27;87.25;100712.22;5089145;28;20233;-60
2022/01/07 07:10:37;;;;;;;21.20;9.00;;;;;;;2.30;87.01;100713.78;5081109;28;20214;-59
2022/01/07 07:13:05;;;;;;;23.60;9.07;;;;;;;2.17;87.90;100711.06;5081361;28;20283;-59
2022/01/07 07:15:33;;;;;;;23.13;8.97;;;;;;;2.05;88.28;100702.13;5081971;28;20346;-59
2022/01/07 07:18:02;;;;;;;20.33;9.93;;;;;;;2.14;88.70;100708.63;5071966;28;20202;-60
2022/01/07 07:20:30;;;;;;;21.53;9.17;;;;;;;2.27;88.30;100712.22;5058163;28;20254;-59
2022/01/07 07:22:58;;;;;;;22.67;10.77;;;;;;;2.37;87.81;100705.50;5077838;28;20297;-59
2022/01/07 07:25:27;;;;;;;19.40;9.73;;;;;;;2.29;88.08;100710.31;5085125;28;20230;-59
2022/01/07 07:27:55;;;;;;;17.57;8.90;;;;;;;2.15;88.48;100702.44;5085281;28;21482;-59
2022/01/07 07:30:24;;;;;;;23.63;9.63;;;;;;;2.08;89.06;100707.19;5066135;28;20238;-60
2022/01/07 07:32:54;;;;;;;22.93;9.57;;;;;;;2.27;88.37;100696.50;5082473;28;20213;-60
2022/01/07 07:38:19;;;;;;;21.20;10.20;;;;;;;2.11;89.38;100695.72;4980972;28;20692;-60
2022/01/07 07:40:48;;;;;;;19.63;9.57;;;;;;;2.09;89.48;100689.75;5051455;28;20305;-60
2022/01/07 07:43:15;;;;;;;20.70;9.30;;;;;;;2.15;89.57;100687.59;5071730;28;20688;-57
2022/01/07 07:45:43;;;;;;;22.97;10.03;;;;;;;2.20;89.62;100689.94;5082336;28;20214;-59
2022/01/07 07:48:11;;;;;;;21.57;11.13;;;;;;;2.26;88.61;100702.69;5060618;28;20595;-60
2022/01/07 07:50:38;;;;;;;23.17;10.03;;;;;;;2.08;89.45;100698.50;5067904;28;20216;-59
2022/01/07 07:53:06;;;;;;;21.87;11.20;;;;;;;2.36;88.50;100700.38;5072077;28;20298;-59
2022/01/07 07:55:34;;;;;;;21.07;10.77;;;;;;;2.54;87.08;100707.13;5070468;28;20698;-60
2022/01/07 07:58:03;;;;;;;21.90;10.07;;;;;;;2.25;88.01;100706.22;5090021;28;20336;-59
2022/01/07 08:00:32;;;;;;;22.80;10.40;;;;;;;2.34;88.08;100702.22;5080866;28;20208;-60
2022/01/07 08:03:00;;;;;;;24.37;9.77;;;;;;;2.42;87.80;100711.31;5070807;28;20287;-57
2022/01/07 08:05:28;;;;;;;21.53;9.80;;;;;;;2.52;87.47;100711.59;5081560;28;20739;-60
2022/01/07 08:07:58;;;;;;;19.37;9.97;;;;;;;2.40;87.14;100715.78;5086946;28;20228;-60
2022/01/07 08:10:27;;;;;;;24.73;10.00;;;;;;;2.44;87.22;100708.59;5073485;28;20450;-61
2022/01/07 08:13:25;;;;;;;21.50;10.73;;;;;;;2.39;87.96;100705.41;5068882;28;20235;-60
2022/01/07 08:15:58;;;;;;;22.07;10.83;;;;;;;2.16;90.14;100701.53;5064819;28;20226;-60
2022/01/07 08:18:26;;;;;;;21.50;10.30;;;;;;;2.07;90.22;100702.06;5072222;28;20476;-60
2022/01/07 08:20:55;;;;;;;20.40;10.80;;;;;;;2.32;89.00;100698.84;5071909;28;20245;-60
2022/01/07 08:23:24;;;;;;;21.70;10.73;;;;;;;2.64;88.22;100698.63;5071790;28;20294;-61
2022/01/07 08:25:52;;;;;;;23.97;10.50;;;;;;;2.57;87.25;100694.69;5072158;28;20318;-60
2022/01/07 08:28:23;;;;;;;23.67;10.57;;;;;;;2.65;86.91;100691.59;5081792;28;20233;-60
2022/01/07 08:31:01;;;;;;;19.43;9.93;;;;;;;2.84;86.53;100691.34;5077666;28;20732;-60
2022/01/07 08:36:16;;;;;;;22.67;10.47;;;;;;;2.68;86.75;100686.19;5077276;28;20219;-59
2022/01/07 08:38:44;;;;;;;17.27;9.53;;;;;;;2.58;87.08;100680.66;5069683;28;20199;-59
2022/01/07 08:41:12;;;;;;;24.77;10.97;;;;;;;2.54;87.45;100678.34;5086933;28;20217;-59
2022/01/07 08:43:40;;;;;;;20.90;9.73;;;;;;;2.76;86.67;100672.63;5071858;28;20216;-60
2022/01/07 08:46:10;;;;;;;22.83;11.30;;;;;;;2.49;87.68;100670.75;5065511;28;20579;-59
2022/01/07 08:48:39;;;;;;;23.00;10.87;;;;;;;2.61;87.21;100675.25;5064611;28;20270;-59
2022/01/07 08:51:08;;;;;;;18.37;9.53;;;;;;;2.58;87.25;100675.44;5071711;28;20214;-59
2022/01/07 08:53:36;;;;;;;20.90;10.13;;;;;;;2.40;88.48;100666.06;5057786;28;20275;-60
2022/01/07 08:56:04;;;;;;;22.80;10.77;;;;;;;2.39;88.23;100661.75;5082318;28;20210;-59
2022/01/07 08:58:32;;;;;;;19.27;9.87;;;;;;;2.35;88.85;100656.81;5078712;28;20249;-61
2022/01/07 09:01:00;;;;;;;21.43;10.33;;;;;;;2.33;89.20;100663.91;5073713;28;20658;-60
2022/01/07 09:03:30;;;;;;;21.77;9.93;;;;;;;2.36;88.84;100664.56;5086537;28;20282;-60
2022/01/07 09:05:57;;;;;;;18.77;10.33;;;;;;;2.39;89.49;100656.53;5087957;28;20222;-60
2022/01/07 09:08:25;;;;;;;18.10;10.07;;;;;;;2.30;88.86;100654.44;5082184;28;20261;-60
2022/01/07 09:10:53;;;;;;;22.30;9.80;;;;;;;2.43;88.81;100654.56;5083673;28;20210;-60
2022/01/07 09:13:21;;;;;;;20.70;10.03;;;;;;;2.67;87.24;100657.47;5082999;28;20217;-60
2022/01/07 09:15:49;;;;;;;19.03;9.87;;;;;;;2.48;87.36;100650.72;5072288;28;20207;-59
2022/01/07 09:18:18;;;;;;;25.73;10.50;;;;;;;2.65;87.66;100655.78;5082882;28;20234;-60
2022/01/07 09:20:49;;;;;;;21.10;9.13;;;;;;;2.52;88.46;100649.63;5081776;28;20214;-60
2022/01/07 09:23:17;;;;;;;21.87;10.10;;;;;;;2.40;88.89;100647.72;5073926;28;20239;-60
2022/01/07 09:25:45;;;;;;;21.43;10.13;;;;;;;2.56;88.12;100645.88;5069235;28;20242;-59
2022/01/07 09:28:13;;;;;;;18.70;10.20;;;;;;;2.26;90.01;100643.34;5085711;28;20251;-59
2022/01/07 09:30:45;;;;;;;21.53;9.40;;;;;;;2.17;91.70;100640.41;5073206;28;20247;-59
2022/01/07 09:33:13;;;;;;;20.27;9.97;;;;;;;2.36;91.05;100641.00;5078566;28;20212;-59
2022/01/07 09:35:41;;;;;;;20.77;9.53;;;;;;;2.40;90.43;100645.13;5071885;28;20214;-60
2022/01/07 09:38:10;;;;;;;25.23;10.47;;;;;;;2.38;90.12;100641.75;5069854;28;20202;-60
2022/01/07 09:40:37;;;;;;;23.40;9.87;;;;;;;2.53;89.79;100635.59;5073272;28;20207;-60
2022/01/07 09:43:08;;;;;;;25.53;10.63;;;;;;;2.46;90.24;100629.03;5070785;28;20243;-58
2022/01/07 09:45:38;;;;;;;18.70;8.90;;;;;;;2.53;89.29;100624.28;5070832;28;20211;-60
2022/01/07 09:48:08;;;;;;;20.73;9.43;;;;;;;2.60;88.58;100625.59;5075602;28;20732;-60
2022/01/07 09:50:37;;;;;;;19.73;8.60;;;;;;;2.83;87.71;100624.16;5079226;28;20212;-60
2022/01/07 09:53:07;;;;;;;18.47;7.83;;;;;;;2.53;88.78;100640.00;5074560;28;20624;-59
2022/01/07 09:55:36;;;;;;;17.30;8.77;;;;;;;2.73;88.92;100630.94;5074377;28;20208;-60
2022/01/07 09:58:05;;;;;;;18.77;8.50;;;;;;;2.60;89.01;100620.34;5075718;28;20560;-60
2022/01/07 10:00:35;;;;;;;15.03;7.83;;;;;;;2.62;89.21;100624.56;5077061;28;20258;-60
2022/01/07 10:03:07;;;;;;;18.87;9.40;;;;;;;2.51;89.52;100624.38;5072160;28;20215;-60
2022/01/07 10:05:41;;;;;;;18.93;8.63;;;;;;;2.51;89.73;100627.00;5076135;28;20234;-59
2022/01/07 10:08:23;;;;;;;25.13;8.63;;;;;;;2.36;90.69;100617.47;5092253;28;20206;-58
2022/01/07 10:14:12;;;;;;;21.63;8.93;;;;;;;2.65;89.04;100627.00;5129185;27;20563;-59
2022/01/07 10:16:48;;;;;;;15.80;7.83;;;;;;;2.69;88.69;100619.81;5128512;27;20561;-59
2022/01/07 10:19:32;;;;;;;21.67;8.90;;;;;;;2.60;88.73;100621.19;5128603;27;20532;-61
2022/01/07 10:22:02;;;;;;;20.63;8.83;;;;;;;2.49;89.51;100618.38;5123793;27;20210;-60
2022/01/07 10:24:30;;;;;;;19.90;7.67;;;;;;;2.42;90.04;100613.63;5114401;27;20211;-60
2022/01/07 10:27:13;;;;;;;20.40;8.80;;;;;;;2.55;89.79;100609.34;5129942;27;20304;-59
2022/01/07 10:29:45;;;;;;;19.80;8.77;;;;;;;2.75;89.02;100602.84;5120764;27;20228;-60
2022/01/07 10:32:21;;;;;;;20.17;7.93;;;;;;;2.78;88.73;100597.44;5118057;28;20602;-60
2022/01/07 10:35:02;;;;;;;19.13;7.93;;;;;;;2.68;88.53;100596.31;5117681;27;20676;-60
2022/01/07 10:37:29;;;;;;;19.33;7.17;;;;;;;2.64;88.39;100586.03;5114375;28;20214;-59
2022/01/07 10:39:57;;;;;;;19.17;7.83;;;;;;;2.47;89.41;100585.38;5112816;27;20300;-60
2022/01/07 10:42:27;;;;;;;16.93;7.60;;;;;;;2.51;89.32;100579.88;5108583;28;20267;-60
2022/01/07 10:45:01;;;;;;;20.17;7.53;;;;;;;2.61;89.16;100578.38;5109379;28;20297;-60
2022/01/07 10:47:29;;;;;;;18.67;7.37;;;;;;;2.68;88.43;100578.84;5121382;28;20214;-59
2022/01/07 10:50:17;;;;;;;14.77;6.80;;;;;;;2.55;89.05;100583.97;5117403;27;20207;-62
2022/01/07 10:52:45;;;;;;;15.33;7.53;;;;;;;2.56;89.23;100567.34;5115693;27;20713;-60
2022/01/07 10:55:18;;;;;;;11.53;6.00;;;;;;;2.59;89.14;100572.41;5126685;27;20240;-59
2022/01/07 10:57:51;;;;;;;15.13;6.67;;;;;;;2.73;88.62;100562.84;5127435;28;20288;-61
2022/01/07 11:00:21;;;;;;;18.00;6.30;;;;;;;2.62;88.28;100566.97;5124036;28;20218;-59
2022/01/07 11:02:49;;;;;;;13.77;6.30;;;;;;;2.70;88.29;100568.28;5124439;28;20293;-59
2022/01/07 11:05:17;;;;;;;16.07;6.70;;;;;;;2.65;88.79;100572.00;5119131;28;20211;-62
2022/01/07 11:07:45;;;;;;;15.73;6.57;;;;;;;2.60;89.01;100563.59;5110358;27;20301;-61
2022/01/07 11:10:13;;;;;;;15.30;6.13;;;;;;;2.71;88.44;100564.72;5108820;27;20249;-60
2022/01/07 11:12:41;;;;;;;17.87;6.37;;;;;;;2.74;88.37;100560.13;5122519;28;20237;-57
2022/01/07 11:15:10;;;;;;;16.23;5.80;;;;;;;2.86;88.23;100558.50;5116007;27;20246;-59
2022/01/07 11:17:39;;;;;;;12.93;6.50;;;;;;;2.67;89.36;100555.34;5111244;28;20339;-57
2022/01/07 11:20:07;;;;;;;11.87;5.50;;;;;;;2.74;89.10;100564.50;5108844;28;20207;-61
2022/01/07 11:22:40;;;;;;;13.30;6.13;;;;;;;2.80;88.84;100549.28;5121381;28;20206;-59
2022/01/07 11:25:11;;;;;;;16.17;6.83;;;;;;;3.01;87.67;100549.66;5110265;28;20275;-60
2022/01/07 11:27:48;;;;;;;15.43;6.00;;;;;;;3.05;87.87;100543.31;5099966;28;20210;-63
2022/01/07 11:30:18;;;;;;;11.07;4.47;;;;;;;3.06;87.28;100537.13;5096487;28;20693;-61
2022/01/07 11:32:48;;;;;;;13.03;5.37;;;;;;;3.15;87.25;100533.06;5097396;28;20275;-61
2022/01/07 11:35:49;;;;;;;12.80;6.33;;;;;;;3.03;87.78;100537.31;5097880;28;20681;-60
2022/01/07 11:38:33;;;;;;;12.73;5.30;;;;;;;3.11;87.63;100529.81;5103245;28;20287;-60
2022/01/07 11:41:01;;;;;;;10.50;5.03;;;;;;;3.09;87.58;100539.53;5095213;28;20240;-61
2022/01/07 11:43:35;;;;;;;14.67;5.77;;;;;;;2.92;88.67;100535.38;5094418;28;20208;-61